createdAt,value
2017-08-28T00:00:32.611Z,16.1
2017-08-28T00:01:34.014Z,16.1
2017-08-28T00:02:35.418Z,16.1
2017-08-28T00:03:36.829Z,16.1
2017-08-28T00:04:38.228Z,16.1
2017-08-28T00:05:39.630Z,16.1
2017-08-28T00:06:41.048Z,16.1
2017-08-28T00:07:42.450Z,16.1
2017-08-28T00:08:43.931Z,16.0
2017-08-28T00:09:45.340Z,16.1
2017-08-28T00:10:46.810Z,16.0
2017-08-28T00:11:48.213Z,16.0
2017-08-28T00:12:49.691Z,15.9
2017-08-28T00:13:51.090Z,15.9
2017-08-28T00:14:52.573Z,16.0
2017-08-28T00:15:53.976Z,15.9
2017-08-28T00:16:55.450Z,15.9
2017-08-28T00:17:56.851Z,15.9
2017-08-28T00:18:58.333Z,15.9
2017-08-28T00:19:59.735Z,15.9
2017-08-28T00:21:01.133Z,15.9
2017-08-28T00:22:02.552Z,15.9
2017-08-28T00:23:03.951Z,16.0
2017-08-28T00:24:05.353Z,15.9
2017-08-28T00:25:06.775Z,16.0
2017-08-28T00:26:08.187Z,16.0
2017-08-28T00:27:09.673Z,16.0
2017-08-28T00:28:11.082Z,16.0
2017-08-28T00:29:12.532Z,16.0
2017-08-28T00:30:13.932Z,16.0
2017-08-28T00:31:15.332Z,16.0
2017-08-28T00:32:16.755Z,15.9
2017-08-28T00:33:18.154Z,15.9
2017-08-28T00:34:19.557Z,16.0
2017-08-28T00:35:21.082Z,15.9
2017-08-28T00:36:22.503Z,15.9
2017-08-28T00:37:23.890Z,15.8
2017-08-28T00:38:25.391Z,15.9
2017-08-28T00:39:26.802Z,15.9
2017-08-28T00:40:28.198Z,15.8
2017-08-28T00:41:29.610Z,15.8
2017-08-28T00:42:31.008Z,15.8
2017-08-28T00:43:32.520Z,15.8
2017-08-28T00:44:33.927Z,15.8
2017-08-28T00:45:35.379Z,15.8
2017-08-28T00:46:36.784Z,15.7
2017-08-28T00:47:38.181Z,15.7
2017-08-28T00:48:39.596Z,15.6
2017-08-28T00:49:41.014Z,15.6
2017-08-28T00:50:42.415Z,15.7
2017-08-28T00:51:43.912Z,15.8
2017-08-28T00:52:45.312Z,15.6
2017-08-28T00:53:46.795Z,15.6
2017-08-28T00:54:48.193Z,15.6
2017-08-28T00:55:49.676Z,15.6
2017-08-28T00:56:51.076Z,15.6
2017-08-28T00:57:52.473Z,15.6
2017-08-28T00:58:53.894Z,15.6
2017-08-28T00:59:55.293Z,15.7
2017-08-28T01:00:56.689Z,15.6
2017-08-28T01:01:58.113Z,15.6
2017-08-28T01:02:59.516Z,15.6
2017-08-28T01:04:00.917Z,15.6
2017-08-28T01:05:02.439Z,15.6
2017-08-28T01:06:03.834Z,15.6
2017-08-28T01:07:05.243Z,15.6
2017-08-28T01:08:06.673Z,15.6
2017-08-28T01:09:08.057Z,15.6
2017-08-28T01:10:09.532Z,15.5
2017-08-28T01:11:10.933Z,15.6
2017-08-28T01:12:12.331Z,15.5
2017-08-28T01:13:13.752Z,15.5
2017-08-28T01:14:15.151Z,15.5
2017-08-28T01:15:16.576Z,15.5
2017-08-28T01:16:18.071Z,15.5
2017-08-28T01:17:19.472Z,15.6
2017-08-28T01:18:20.872Z,15.5
2017-08-28T01:19:22.291Z,15.5
2017-08-28T01:20:23.690Z,15.6
2017-08-28T01:21:25.087Z,15.6
2017-08-28T01:22:26.514Z,15.6
2017-08-28T01:23:27.910Z,15.6
2017-08-28T01:24:29.311Z,15.6
2017-08-28T01:25:30.726Z,15.7
2017-08-28T01:26:32.127Z,15.7
2017-08-28T01:27:33.525Z,15.7
2017-08-28T01:28:34.950Z,15.7
2017-08-28T01:29:36.350Z,15.6
2017-08-28T01:30:37.826Z,15.6
2017-08-28T01:31:39.221Z,15.6
2017-08-28T01:32:40.621Z,15.5
2017-08-28T01:33:42.044Z,15.6
2017-08-28T01:34:43.445Z,15.6
2017-08-28T01:35:44.840Z,15.4
2017-08-28T01:36:46.263Z,15.5
2017-08-28T01:37:47.662Z,15.4
2017-08-28T01:38:49.144Z,15.5
2017-08-28T01:39:50.542Z,15.4
2017-08-28T01:40:52.034Z,15.5
2017-08-28T01:41:53.429Z,15.5
2017-08-28T01:42:54.904Z,15.4
2017-08-28T01:43:56.300Z,15.5
2017-08-28T01:44:57.786Z,15.5
2017-08-28T01:45:59.184Z,15.4
2017-08-28T01:47:00.583Z,15.4
2017-08-28T01:48:02.005Z,15.4
2017-08-28T01:49:03.407Z,15.4
2017-08-28T01:50:04.819Z,15.3
2017-08-28T01:51:06.326Z,15.4
2017-08-28T01:52:07.727Z,15.4
2017-08-28T01:53:09.124Z,15.3
2017-08-28T01:54:10.546Z,15.3
2017-08-28T01:55:11.967Z,15.3
2017-08-28T01:56:13.424Z,15.3
2017-08-28T01:57:14.824Z,15.2
2017-08-28T01:58:16.307Z,15.3
2017-08-28T01:59:17.704Z,15.2
2017-08-28T02:00:19.110Z,15.2
2017-08-28T02:01:20.507Z,15.2
2017-08-28T02:02:21.910Z,15.2
2017-08-28T02:03:23.456Z,15.3
2017-08-28T02:04:24.836Z,15.2
2017-08-28T02:05:26.235Z,15.2
2017-08-28T02:06:27.745Z,15.2
2017-08-28T02:07:29.124Z,15.1
2017-08-28T02:08:30.626Z,15.2
2017-08-28T02:09:32.041Z,15.1
2017-08-28T02:10:33.483Z,15.1
2017-08-28T02:11:34.883Z,15.1
2017-08-28T02:12:36.369Z,15.1
2017-08-28T02:13:37.769Z,15.2
2017-08-28T02:14:39.248Z,15.1
2017-08-28T02:15:40.646Z,15.1
2017-08-28T02:16:42.129Z,15.1
2017-08-28T02:17:43.527Z,15.1
2017-08-28T02:18:45.009Z,15.1
2017-08-28T02:19:46.406Z,15.1
2017-08-28T02:20:47.890Z,15.1
2017-08-28T02:21:49.295Z,15.1
2017-08-28T02:22:50.770Z,15.1
2017-08-28T02:23:52.169Z,15.2
2017-08-28T02:24:53.658Z,15.2
2017-08-28T02:25:55.060Z,15.2
2017-08-28T02:26:56.540Z,15.1
2017-08-28T02:27:57.934Z,15.2
2017-08-28T02:28:59.415Z,15.2
2017-08-28T02:30:00.828Z,15.1
2017-08-28T02:31:02.297Z,15.1
2017-08-28T02:32:03.695Z,15.1
2017-08-28T02:33:05.175Z,15.1
2017-08-28T02:34:06.572Z,15.1
2017-08-28T02:35:08.069Z,15.1
2017-08-28T02:36:09.468Z,15.1
2017-08-28T02:37:10.865Z,15.0
2017-08-28T02:38:12.382Z,15.0
2017-08-28T02:39:13.784Z,14.9
2017-08-28T02:40:15.182Z,15.0
2017-08-28T02:41:16.626Z,15.0
2017-08-28T02:42:18.003Z,15.0
2017-08-28T02:43:19.406Z,15.0
2017-08-28T02:44:20.933Z,15.0
2017-08-28T02:45:22.361Z,15.0
2017-08-28T02:46:23.797Z,15.0
2017-08-28T02:47:25.216Z,14.9
2017-08-28T02:48:26.615Z,15.0
2017-08-28T02:49:28.118Z,15.0
2017-08-28T02:50:29.517Z,15.0
2017-08-28T02:51:30.914Z,14.9
2017-08-28T02:52:32.337Z,15.0
2017-08-28T02:53:33.736Z,14.9
2017-08-28T02:54:35.133Z,14.9
2017-08-28T02:55:36.556Z,14.9
2017-08-28T02:56:37.952Z,14.9
2017-08-28T02:57:39.352Z,14.9
2017-08-28T02:58:40.773Z,14.9
2017-08-28T02:59:42.213Z,14.9
2017-08-28T03:00:43.653Z,14.9
2017-08-28T03:01:45.049Z,14.9
2017-08-28T03:02:46.536Z,14.9
2017-08-28T03:03:47.935Z,14.9
2017-08-28T03:04:49.332Z,14.9
2017-08-28T03:05:50.756Z,14.9
2017-08-28T03:06:52.154Z,14.9
2017-08-28T03:07:53.560Z,14.9
2017-08-28T03:08:55.075Z,14.8
2017-08-28T03:09:56.474Z,14.9
2017-08-28T03:10:57.954Z,14.9
2017-08-28T03:11:59.358Z,14.9
2017-08-28T03:13:00.761Z,14.8
2017-08-28T03:14:02.278Z,14.9
2017-08-28T03:15:03.686Z,14.7
2017-08-28T03:16:05.089Z,14.8
2017-08-28T03:17:06.597Z,14.7
2017-08-28T03:18:08.017Z,14.8
2017-08-28T03:19:09.447Z,14.8
2017-08-28T03:20:10.921Z,14.8
2017-08-28T03:21:12.328Z,14.8
2017-08-28T03:22:13.735Z,14.7
2017-08-28T03:23:15.239Z,14.8
2017-08-28T03:24:16.639Z,14.8
2017-08-28T03:25:18.502Z,14.8
2017-08-28T03:26:19.903Z,14.8
2017-08-28T03:27:21.410Z,14.8
2017-08-28T03:28:22.806Z,14.7
2017-08-28T03:29:24.207Z,14.7
2017-08-28T03:30:25.732Z,14.8
2017-08-28T03:31:27.129Z,14.8
2017-08-28T03:32:28.525Z,14.8
2017-08-28T03:33:30.052Z,14.8
2017-08-28T03:34:31.451Z,14.7
2017-08-28T03:35:32.847Z,14.8
2017-08-28T03:36:34.373Z,14.8
2017-08-28T03:37:35.771Z,14.8
2017-08-28T03:38:37.166Z,14.7
2017-08-28T03:39:38.692Z,14.8
2017-08-28T03:40:40.102Z,14.8
2017-08-28T03:41:41.499Z,14.7
2017-08-28T03:42:43.018Z,14.7
2017-08-28T03:43:44.424Z,14.7
2017-08-28T03:44:45.823Z,14.7
2017-08-28T03:45:47.337Z,14.7
2017-08-28T03:46:48.735Z,14.7
2017-08-28T03:47:50.134Z,14.7
2017-08-28T03:48:51.657Z,14.7
2017-08-28T03:49:53.066Z,14.7
2017-08-28T03:50:54.856Z,14.7
2017-08-28T03:51:56.387Z,14.7
2017-08-28T03:52:57.785Z,14.7
2017-08-28T03:53:59.184Z,14.6
2017-08-28T03:55:00.708Z,14.6
2017-08-28T03:56:02.111Z,14.6
2017-08-28T03:57:03.557Z,14.6
2017-08-28T03:58:05.033Z,14.6
2017-08-28T03:59:06.458Z,14.6
2017-08-28T04:00:07.856Z,14.6
2017-08-28T04:01:09.350Z,14.6
2017-08-28T04:02:11.126Z,14.7
2017-08-28T04:03:12.526Z,14.6
2017-08-28T04:04:14.082Z,14.7
2017-08-28T04:05:15.498Z,14.6
2017-08-28T04:06:16.896Z,14.6
2017-08-28T04:07:18.403Z,14.5
2017-08-28T04:08:19.800Z,14.6
2017-08-28T04:09:21.199Z,14.6
2017-08-28T04:10:22.727Z,14.5
2017-08-28T04:11:24.122Z,14.5
2017-08-28T04:12:25.606Z,14.6
2017-08-28T04:13:27.003Z,14.5
2017-08-28T04:14:28.485Z,14.5
2017-08-28T04:15:29.882Z,14.5
2017-08-28T04:16:31.364Z,14.5
2017-08-28T04:17:32.784Z,14.6
2017-08-28T04:18:34.247Z,14.5
2017-08-28T04:19:35.653Z,14.6
2017-08-28T04:20:38.454Z,14.5
2017-08-28T04:21:39.999Z,14.5
2017-08-28T04:22:41.399Z,14.6
2017-08-28T04:23:42.797Z,14.5
2017-08-28T04:24:44.322Z,14.5
2017-08-28T04:25:45.723Z,14.5
2017-08-28T04:26:47.202Z,14.5
2017-08-28T04:27:48.599Z,14.6
2017-08-28T04:28:50.083Z,14.5
2017-08-28T04:29:51.478Z,14.6
2017-08-28T04:30:52.964Z,14.6
2017-08-28T04:31:54.364Z,14.5
2017-08-28T04:32:55.846Z,14.6
2017-08-28T04:33:57.245Z,14.6
2017-08-28T04:34:58.734Z,14.6
2017-08-28T04:36:00.134Z,14.5
2017-08-28T04:37:01.606Z,14.6
2017-08-28T04:38:03.007Z,14.6
2017-08-28T04:39:04.493Z,14.5
2017-08-28T04:40:05.889Z,14.5
2017-08-28T04:41:07.346Z,14.5
2017-08-28T04:42:08.744Z,14.5
2017-08-28T04:43:10.226Z,14.5
2017-08-28T04:44:11.623Z,14.5
2017-08-28T04:45:13.113Z,14.6
2017-08-28T04:46:14.513Z,14.5
2017-08-28T04:47:15.986Z,14.6
2017-08-28T04:48:17.388Z,14.5
2017-08-28T04:49:18.869Z,14.5
2017-08-28T04:50:20.265Z,14.6
2017-08-28T04:51:21.749Z,14.5
2017-08-28T04:52:23.167Z,14.5
2017-08-28T04:53:24.635Z,14.5
2017-08-28T04:54:26.039Z,14.5
2017-08-28T04:55:27.513Z,14.5
2017-08-28T04:56:28.913Z,14.5
2017-08-28T04:57:30.322Z,14.5
2017-08-28T04:58:31.725Z,14.4
2017-08-28T04:59:33.276Z,14.5
2017-08-28T05:00:34.676Z,14.5
2017-08-28T05:01:36.156Z,14.5
2017-08-28T05:02:37.562Z,14.5
2017-08-28T05:03:39.041Z,14.5
2017-08-28T05:04:40.439Z,14.5
2017-08-28T05:05:41.918Z,14.6
2017-08-28T05:06:43.317Z,14.5
2017-08-28T05:07:44.800Z,14.5
2017-08-28T05:08:46.203Z,14.6
2017-08-28T05:09:47.681Z,14.5
2017-08-28T05:10:49.084Z,14.5
2017-08-28T05:11:50.573Z,14.6
2017-08-28T05:12:51.970Z,14.6
2017-08-28T05:13:53.449Z,14.5
2017-08-28T05:14:54.853Z,14.6
2017-08-28T05:15:56.254Z,14.5
2017-08-28T05:16:57.765Z,14.5
2017-08-28T05:17:59.168Z,14.5
2017-08-28T05:19:00.581Z,14.5
2017-08-28T05:20:02.086Z,14.6
2017-08-28T05:21:03.488Z,14.7
2017-08-28T05:22:04.969Z,14.7
2017-08-28T05:23:06.371Z,14.7
2017-08-28T05:24:07.857Z,14.6
2017-08-28T05:25:09.259Z,14.7
2017-08-28T05:26:10.687Z,14.8
2017-08-28T05:27:12.171Z,14.8
2017-08-28T05:28:13.572Z,14.9
2017-08-28T05:29:14.974Z,14.8
2017-08-28T05:30:16.492Z,14.8
2017-08-28T05:31:17.894Z,14.9
2017-08-28T05:32:19.381Z,14.9
2017-08-28T05:33:20.785Z,14.9
2017-08-28T05:34:22.255Z,14.9
2017-08-28T05:35:23.656Z,14.9
2017-08-28T05:36:25.137Z,15.0
2017-08-28T05:37:26.538Z,14.9
2017-08-28T05:38:28.016Z,15.0
2017-08-28T05:39:29.421Z,15.0
2017-08-28T05:40:31.199Z,15.0
2017-08-28T05:41:32.746Z,15.1
2017-08-28T05:42:34.147Z,15.1
2017-08-28T05:43:35.554Z,15.0
2017-08-28T05:44:37.070Z,15.1
2017-08-28T05:45:38.472Z,15.2
2017-08-28T05:46:39.970Z,15.2
2017-08-28T05:47:41.366Z,15.1
2017-08-28T05:48:42.829Z,15.2
2017-08-28T05:49:44.236Z,15.1
2017-08-28T05:50:45.712Z,15.2
2017-08-28T05:51:47.116Z,15.3
2017-08-28T05:52:48.597Z,15.2
2017-08-28T05:53:49.997Z,15.4
2017-08-28T05:54:51.414Z,15.4
2017-08-28T05:55:52.947Z,15.4
2017-08-28T05:56:54.361Z,15.4
2017-08-28T05:57:55.763Z,15.5
2017-08-28T05:58:57.204Z,15.4
2017-08-28T05:59:58.679Z,15.5
2017-08-28T06:01:00.078Z,15.5
2017-08-28T06:02:01.480Z,15.6
2017-08-28T06:03:03.000Z,15.5
2017-08-28T06:04:04.400Z,15.5
2017-08-28T06:05:05.800Z,15.5
2017-08-28T06:06:07.324Z,15.6
2017-08-28T06:07:08.722Z,15.6
2017-08-28T06:08:10.124Z,15.7
2017-08-28T06:09:11.646Z,15.7
2017-08-28T06:10:13.060Z,15.7
2017-08-28T06:11:14.463Z,15.7
2017-08-28T06:12:15.977Z,15.8
2017-08-28T06:13:17.381Z,15.7
2017-08-28T06:14:18.845Z,15.8
2017-08-28T06:15:20.245Z,15.9
2017-08-28T06:16:21.726Z,15.9
2017-08-28T06:17:23.129Z,15.9
2017-08-28T06:18:24.612Z,16.0
2017-08-28T06:19:26.015Z,16.0
2017-08-28T06:20:27.495Z,16.0
2017-08-28T06:21:28.897Z,16.1
2017-08-28T06:22:30.372Z,16.2
2017-08-28T06:23:31.776Z,16.1
2017-08-28T06:24:33.253Z,16.0
2017-08-28T06:25:34.655Z,16.2
2017-08-28T06:26:36.055Z,16.2
2017-08-28T06:27:37.576Z,16.2
2017-08-28T06:28:38.980Z,16.2
2017-08-28T06:29:40.381Z,16.3
2017-08-28T06:30:41.897Z,16.3
2017-08-28T06:31:43.300Z,16.4
2017-08-28T06:32:44.703Z,16.4
2017-08-28T06:33:46.218Z,16.4
2017-08-28T06:34:47.622Z,16.5
2017-08-28T06:35:49.026Z,16.6
2017-08-28T06:36:50.541Z,16.6
2017-08-28T06:37:51.940Z,16.6
2017-08-28T06:38:53.426Z,16.7
2017-08-28T06:39:54.821Z,16.8
2017-08-28T06:40:56.229Z,16.8
2017-08-28T06:41:57.742Z,16.8
2017-08-28T06:42:59.143Z,16.9
2017-08-28T06:44:00.544Z,16.9
2017-08-28T06:45:02.062Z,16.9
2017-08-28T06:46:03.848Z,17.0
2017-08-28T06:47:05.394Z,17.0
2017-08-28T06:48:06.795Z,17.0
2017-08-28T06:49:08.250Z,17.0
2017-08-28T06:50:09.649Z,17.1
2017-08-28T06:51:11.047Z,17.2
2017-08-28T06:52:12.939Z,17.2
2017-08-28T06:53:14.344Z,17.3
2017-08-28T06:54:15.742Z,17.2
2017-08-28T06:55:17.183Z,17.3
2017-08-28T06:56:18.586Z,17.4
2017-08-28T06:57:20.067Z,17.3
2017-08-28T06:58:21.466Z,17.4
2017-08-28T06:59:22.947Z,17.5
2017-08-28T07:00:24.349Z,17.6
2017-08-28T07:01:25.830Z,17.4
2017-08-28T07:02:27.237Z,17.5
2017-08-28T07:03:28.668Z,17.6
2017-08-28T07:04:30.147Z,17.6
2017-08-28T07:05:31.567Z,17.7
2017-08-28T07:06:32.968Z,17.8
2017-08-28T07:07:34.469Z,17.8
2017-08-28T07:08:35.872Z,17.8
2017-08-28T07:09:37.274Z,17.9
2017-08-28T07:10:38.796Z,18.0
2017-08-28T07:11:40.194Z,17.9
2017-08-28T07:12:41.671Z,17.9
2017-08-28T07:13:43.072Z,18.1
2017-08-28T07:14:44.550Z,18.1
2017-08-28T07:15:45.955Z,18.1
2017-08-28T07:16:47.357Z,18.2
2017-08-28T07:17:48.895Z,18.3
2017-08-28T07:18:50.299Z,18.3
2017-08-28T07:19:51.704Z,18.4
2017-08-28T07:20:53.189Z,18.5
2017-08-28T07:21:54.595Z,18.5
2017-08-28T07:22:56.382Z,18.5
2017-08-28T07:23:58.198Z,18.6
2017-08-28T07:24:59.988Z,18.6
2017-08-28T07:26:01.394Z,18.6
2017-08-28T07:27:02.860Z,18.7
2017-08-28T07:28:04.260Z,18.8
2017-08-28T07:29:05.737Z,18.8
2017-08-28T07:30:07.178Z,18.9
2017-08-28T07:31:08.620Z,19.0
2017-08-28T07:32:10.024Z,19.1
2017-08-28T07:33:11.499Z,19.1
2017-08-28T07:34:12.901Z,19.2
2017-08-28T07:35:14.379Z,19.2
2017-08-28T07:36:15.785Z,19.2
2017-08-28T07:37:17.188Z,19.4
2017-08-28T07:38:18.700Z,19.4
2017-08-28T07:39:20.106Z,19.5
2017-08-28T07:40:21.507Z,19.5
2017-08-28T07:41:23.030Z,19.6
2017-08-28T07:42:24.429Z,19.6
2017-08-28T07:43:25.828Z,19.7
2017-08-28T07:44:27.345Z,19.9
2017-08-28T07:45:28.747Z,19.8
2017-08-28T07:46:30.154Z,19.9
2017-08-28T07:47:31.667Z,19.9
2017-08-28T07:48:33.082Z,20.0
2017-08-28T07:49:34.484Z,19.9
2017-08-28T07:50:35.985Z,20.1
2017-08-28T07:51:37.388Z,20.1
2017-08-28T07:52:38.791Z,20.2
2017-08-28T07:53:40.304Z,20.3
2017-08-28T07:54:41.707Z,20.3
2017-08-28T07:55:43.110Z,20.3
2017-08-28T07:56:44.626Z,20.5
2017-08-28T07:57:46.028Z,20.6
2017-08-28T07:58:47.510Z,20.6
2017-08-28T07:59:48.944Z,20.6
2017-08-28T08:00:50.387Z,20.7
2017-08-28T08:01:51.801Z,20.9
2017-08-28T08:02:53.205Z,20.9
2017-08-28T08:03:54.708Z,20.9
2017-08-28T08:04:56.113Z,20.9
2017-08-28T08:05:57.517Z,21.0
2017-08-28T08:06:59.030Z,21.0
2017-08-28T08:08:00.439Z,21.1
2017-08-28T08:09:01.852Z,21.3
2017-08-28T08:10:03.353Z,21.3
2017-08-28T08:11:04.756Z,21.4
2017-08-28T08:12:06.161Z,21.4
2017-08-28T08:13:07.672Z,21.6
2017-08-28T08:14:09.463Z,21.6
2017-08-28T08:15:10.962Z,21.6
2017-08-28T08:16:12.324Z,21.7
2017-08-28T08:17:13.729Z,21.7
2017-08-28T08:18:15.179Z,21.8
2017-08-28T08:19:16.584Z,21.8
2017-08-28T08:20:17.993Z,21.9
2017-08-28T08:21:19.500Z,22.0
2017-08-28T08:22:20.906Z,21.9
2017-08-28T08:23:22.382Z,22.0
2017-08-28T08:24:23.787Z,22.1
2017-08-28T08:25:25.262Z,22.2
2017-08-28T08:26:26.668Z,22.2
2017-08-28T08:27:28.149Z,22.4
2017-08-28T08:28:29.562Z,22.4
2017-08-28T08:29:31.024Z,22.5
2017-08-28T08:30:32.442Z,22.5
2017-08-28T08:31:33.905Z,22.7
2017-08-28T08:32:35.807Z,22.8
2017-08-28T08:33:37.330Z,22.8
2017-08-28T08:34:38.708Z,22.8
2017-08-28T08:35:40.179Z,22.9
2017-08-28T08:36:41.602Z,23.1
2017-08-28T08:37:43.013Z,23.0
2017-08-28T08:38:44.500Z,23.2
2017-08-28T08:39:45.904Z,23.2
2017-08-28T08:40:47.380Z,23.3
2017-08-28T08:41:48.787Z,23.3
2017-08-28T08:42:50.200Z,23.3
2017-08-28T08:43:51.701Z,23.4
2017-08-28T08:44:53.103Z,23.5
2017-08-28T08:45:54.581Z,23.5
2017-08-28T08:46:56.006Z,23.5
2017-08-28T08:47:57.393Z,23.6
2017-08-28T08:48:58.895Z,23.6
2017-08-28T08:50:00.315Z,23.7
2017-08-28T08:51:01.740Z,23.7
2017-08-28T08:52:03.238Z,23.9
2017-08-28T08:53:04.639Z,23.8
2017-08-28T08:54:06.106Z,23.9
2017-08-28T08:55:07.512Z,24.0
2017-08-28T08:56:08.985Z,24.1
2017-08-28T08:57:10.389Z,24.0
2017-08-28T08:58:11.796Z,24.1
2017-08-28T08:59:13.307Z,24.2
2017-08-28T09:00:14.713Z,24.2
2017-08-28T09:01:16.156Z,24.2
2017-08-28T09:02:17.628Z,24.3
2017-08-28T09:03:19.046Z,24.4
2017-08-28T09:04:20.447Z,24.3
2017-08-28T09:05:21.947Z,24.4
2017-08-28T09:06:23.353Z,24.3
2017-08-28T09:07:24.760Z,24.4
2017-08-28T09:08:26.270Z,24.5
2017-08-28T09:09:27.678Z,24.6
2017-08-28T09:10:29.152Z,24.7
2017-08-28T09:11:30.558Z,24.7
2017-08-28T09:12:31.975Z,24.8
2017-08-28T09:13:33.382Z,24.8
2017-08-28T09:14:34.822Z,24.9
2017-08-28T09:15:36.251Z,24.9
2017-08-28T09:16:37.657Z,25.1
2017-08-28T09:17:39.072Z,25.1
2017-08-28T09:18:40.570Z,25.2
2017-08-28T09:19:41.979Z,25.3
2017-08-28T09:20:43.385Z,25.2
2017-08-28T09:21:44.890Z,25.4
2017-08-28T09:22:46.298Z,25.5
2017-08-28T09:23:47.703Z,25.5
2017-08-28T09:24:49.211Z,25.5
2017-08-28T09:25:50.636Z,25.7
2017-08-28T09:26:52.483Z,25.7
2017-08-28T09:27:53.899Z,25.8
2017-08-28T09:28:55.382Z,25.8
2017-08-28T09:29:56.788Z,25.9
2017-08-28T09:30:58.202Z,25.9
2017-08-28T09:31:59.612Z,25.9
2017-08-28T09:33:01.043Z,26.0
2017-08-28T09:34:02.454Z,26.1
2017-08-28T09:35:03.952Z,26.2
2017-08-28T09:36:05.360Z,26.1
2017-08-28T09:37:06.815Z,26.3
2017-08-28T09:38:08.221Z,26.4
2017-08-28T09:39:09.682Z,26.4
2017-08-28T09:40:11.105Z,26.5
2017-08-28T09:41:12.564Z,26.6
2017-08-28T09:42:14.106Z,26.6
2017-08-28T09:43:15.507Z,26.6
2017-08-28T09:44:16.922Z,26.8
2017-08-28T09:45:18.328Z,26.7
2017-08-28T09:46:19.736Z,26.7
2017-08-28T09:47:21.150Z,26.8
2017-08-28T09:48:22.563Z,26.9
2017-08-28T09:49:23.979Z,26.9
2017-08-28T09:50:25.389Z,26.9
2017-08-28T09:51:26.803Z,27.0
2017-08-28T09:52:28.212Z,27.0
2017-08-28T09:53:29.636Z,27.1
2017-08-28T09:54:31.048Z,27.1
2017-08-28T09:55:32.465Z,27.2
2017-08-28T09:56:33.874Z,27.1
2017-08-28T09:57:35.293Z,27.2
2017-08-28T09:58:36.699Z,27.3
2017-08-28T09:59:38.118Z,27.4
2017-08-28T10:00:39.550Z,27.5
2017-08-28T10:01:40.966Z,27.5
2017-08-28T10:02:42.389Z,27.5
2017-08-28T10:03:43.785Z,27.6
2017-08-28T10:04:45.201Z,27.7
2017-08-28T10:05:46.609Z,27.7
2017-08-28T10:06:48.012Z,27.8
2017-08-28T10:07:49.431Z,27.9
2017-08-28T10:08:50.839Z,28.0
2017-08-28T10:09:52.250Z,28.0
2017-08-28T10:10:53.663Z,28.0
2017-08-28T10:11:55.116Z,28.1
2017-08-28T10:12:56.528Z,28.2
2017-08-28T10:13:58.041Z,28.4
2017-08-28T10:14:59.458Z,28.5
2017-08-28T10:16:00.871Z,28.6
2017-08-28T10:17:02.366Z,28.6
2017-08-28T10:18:03.777Z,28.7
2017-08-28T10:19:05.195Z,28.8
2017-08-28T10:20:06.676Z,28.9
2017-08-28T10:21:08.117Z,28.9
2017-08-28T10:22:09.562Z,28.9
2017-08-28T10:23:10.972Z,29.1
2017-08-28T10:24:12.395Z,29.2
2017-08-28T10:25:13.883Z,29.3
2017-08-28T10:26:15.291Z,29.4
2017-08-28T10:27:16.697Z,29.5
2017-08-28T10:28:18.205Z,29.6
2017-08-28T10:29:19.617Z,29.7
2017-08-28T10:30:21.576Z,29.6
2017-08-28T10:31:23.039Z,29.8
2017-08-28T10:32:24.451Z,29.8
2017-08-28T10:33:25.918Z,29.9
2017-08-28T10:34:27.330Z,30.1
2017-08-28T10:35:28.743Z,30.2
2017-08-28T10:36:30.240Z,30.4
2017-08-28T10:37:31.653Z,30.4
2017-08-28T10:38:33.067Z,30.5
2017-08-28T10:39:34.481Z,30.6
2017-08-28T10:40:36.001Z,30.7
2017-08-28T10:41:37.418Z,30.9
2017-08-28T10:42:38.881Z,31.0
2017-08-28T10:43:40.307Z,31.2
2017-08-28T10:44:41.760Z,31.5
2017-08-28T10:45:43.176Z,31.7
2017-08-28T10:46:44.644Z,31.9
2017-08-28T10:47:46.054Z,32.1
2017-08-28T10:48:47.468Z,32.4
2017-08-28T10:49:48.962Z,32.5
2017-08-28T10:50:50.383Z,32.7
2017-08-28T10:51:51.789Z,33.0
2017-08-28T10:52:53.305Z,33.2
2017-08-28T10:53:54.739Z,33.4
2017-08-28T10:54:56.149Z,33.7
2017-08-28T10:55:57.611Z,34.0
2017-08-28T10:56:59.059Z,34.2
2017-08-28T10:58:00.484Z,34.2
2017-08-28T10:59:01.901Z,34.5
2017-08-28T11:00:03.369Z,34.6
2017-08-28T11:01:04.809Z,34.8
2017-08-28T11:02:06.249Z,35.1
2017-08-28T11:03:07.662Z,35.2
2017-08-28T11:04:09.137Z,35.4
2017-08-28T11:05:10.550Z,35.5
2017-08-28T11:06:12.010Z,35.4
2017-08-28T11:07:13.429Z,35.5
2017-08-28T11:08:14.892Z,35.7
2017-08-28T11:09:16.734Z,35.8
2017-08-28T11:10:18.149Z,36.1
2017-08-28T11:11:19.633Z,36.2
2017-08-28T11:12:21.050Z,36.4
2017-08-28T11:13:22.464Z,36.5
2017-08-28T11:14:23.946Z,36.4
2017-08-28T11:15:25.360Z,36.5
2017-08-28T11:16:26.776Z,36.5
2017-08-28T11:17:28.271Z,36.5
2017-08-28T11:18:29.686Z,36.7
2017-08-28T11:19:31.103Z,36.9
2017-08-28T11:20:32.584Z,37.0
2017-08-28T11:21:33.998Z,37.3
2017-08-28T11:22:35.417Z,37.3
2017-08-28T11:23:36.907Z,37.4
2017-08-28T11:24:38.349Z,37.6
2017-08-28T11:25:39.786Z,37.8
2017-08-28T11:26:41.203Z,37.9
2017-08-28T11:27:42.667Z,38.0
2017-08-28T11:28:44.107Z,38.0
2017-08-28T11:29:45.548Z,37.8
2017-08-28T11:30:46.962Z,37.5
2017-08-28T11:31:48.430Z,37.0
2017-08-28T11:32:49.844Z,36.6
2017-08-28T11:33:51.314Z,36.5
2017-08-28T11:34:52.730Z,36.1
2017-08-28T11:35:54.144Z,36.0
2017-08-28T11:36:55.632Z,35.6
2017-08-28T11:37:57.048Z,35.4
2017-08-28T11:38:58.463Z,35.2
2017-08-28T11:40:00.333Z,35.2
2017-08-28T11:41:01.747Z,35.2
2017-08-28T11:42:03.159Z,35.2
2017-08-28T11:43:04.681Z,35.3
2017-08-28T11:44:06.140Z,35.1
2017-08-28T11:45:07.548Z,34.6
2017-08-28T11:46:09.000Z,34.3
2017-08-28T11:47:10.442Z,33.9
2017-08-28T11:48:11.856Z,33.7
2017-08-28T11:49:13.324Z,33.7
2017-08-28T11:50:14.738Z,33.9
2017-08-28T11:51:16.204Z,34.1
2017-08-28T11:52:17.618Z,34.6
2017-08-28T11:53:19.083Z,35.1
2017-08-28T11:54:20.506Z,35.4
2017-08-28T11:55:21.964Z,35.8
2017-08-28T11:56:23.379Z,36.5
2017-08-28T11:57:25.868Z,36.9
2017-08-28T11:58:27.286Z,37.2
2017-08-28T11:59:28.751Z,37.4
2017-08-28T12:00:30.206Z,37.7
2017-08-28T12:01:31.735Z,38.2
2017-08-28T12:02:33.147Z,38.6
2017-08-28T12:03:34.613Z,38.9
2017-08-28T12:04:36.036Z,38.9
2017-08-28T12:05:37.510Z,38.7
2017-08-28T12:06:38.923Z,38.1
2017-08-28T12:07:40.380Z,37.3
2017-08-28T12:08:41.809Z,36.5
2017-08-28T12:09:43.222Z,35.9
2017-08-28T12:10:44.694Z,35.4
2017-08-28T12:11:46.108Z,35.1
2017-08-28T12:12:47.547Z,34.8
2017-08-28T12:13:49.016Z,34.7
2017-08-28T12:14:50.429Z,34.9
2017-08-28T12:15:51.838Z,35.2
2017-08-28T12:16:53.337Z,35.5
2017-08-28T12:17:54.749Z,35.5
2017-08-28T12:18:56.219Z,35.4
2017-08-28T12:19:57.631Z,35.2
2017-08-28T12:20:59.042Z,35.1
2017-08-28T12:22:00.540Z,34.9
2017-08-28T12:23:01.957Z,34.6
2017-08-28T12:24:03.388Z,34.7
2017-08-28T12:25:04.861Z,34.9
2017-08-28T12:26:06.275Z,35.4
2017-08-28T12:27:07.694Z,36.0
2017-08-28T12:28:09.182Z,36.8
2017-08-28T12:29:10.596Z,37.5
2017-08-28T12:30:12.002Z,38.0
2017-08-28T12:31:13.502Z,38.3
2017-08-28T12:32:14.915Z,38.5
2017-08-28T12:33:16.327Z,38.5
2017-08-28T12:34:17.823Z,38.5
2017-08-28T12:35:19.241Z,38.4
2017-08-28T12:36:20.654Z,38.3
2017-08-28T12:37:22.151Z,37.9
2017-08-28T12:38:23.562Z,37.5
2017-08-28T12:39:25.086Z,37.5
2017-08-28T12:40:26.439Z,37.8
2017-08-28T12:41:27.853Z,38.1
2017-08-28T12:42:29.344Z,38.6
2017-08-28T12:43:30.754Z,38.7
2017-08-28T12:44:32.165Z,38.9
2017-08-28T12:45:33.675Z,39.0
2017-08-28T12:46:35.076Z,39.0
2017-08-28T12:47:36.548Z,38.5
2017-08-28T12:48:37.961Z,38.1
2017-08-28T12:49:39.429Z,37.5
2017-08-28T12:50:40.844Z,36.9
2017-08-28T12:51:42.309Z,36.4
2017-08-28T12:52:43.719Z,36.0
2017-08-28T12:53:45.191Z,36.0
2017-08-28T12:54:46.634Z,36.1
2017-08-28T12:55:48.046Z,36.3
2017-08-28T12:56:49.512Z,36.7
2017-08-28T12:57:50.944Z,37.1
2017-08-28T12:58:52.358Z,37.4
2017-08-28T12:59:53.832Z,37.6
2017-08-28T13:00:55.247Z,37.6
2017-08-28T13:01:56.714Z,37.4
2017-08-28T13:02:58.121Z,36.9
2017-08-28T13:03:59.593Z,36.5
2017-08-28T13:05:01.002Z,36.3
2017-08-28T13:06:02.419Z,36.3
2017-08-28T13:07:03.914Z,36.2
2017-08-28T13:08:05.329Z,36.1
2017-08-28T13:09:06.731Z,36.2
2017-08-28T13:10:08.235Z,36.1
2017-08-28T13:11:09.644Z,36.1
2017-08-28T13:12:11.051Z,36.2
2017-08-28T13:13:12.928Z,36.3
2017-08-28T13:14:14.339Z,36.4
2017-08-28T13:15:15.746Z,36.2
2017-08-28T13:16:17.185Z,35.7
2017-08-28T13:17:18.594Z,35.1
2017-08-28T13:18:19.998Z,34.7
2017-08-28T13:19:21.506Z,34.0
2017-08-28T13:20:22.915Z,33.5
2017-08-28T13:21:24.321Z,33.1
2017-08-28T13:22:25.826Z,32.5
2017-08-28T13:23:27.237Z,32.3
2017-08-28T13:24:28.644Z,31.9
2017-08-28T13:25:30.149Z,31.7
2017-08-28T13:26:31.558Z,31.4
2017-08-28T13:27:33.028Z,31.2
2017-08-28T13:28:34.434Z,30.8
2017-08-28T13:29:35.911Z,30.5
2017-08-28T13:30:37.339Z,30.5
2017-08-28T13:31:38.776Z,30.3
2017-08-28T13:32:40.224Z,30.2
2017-08-28T13:33:41.641Z,30.1
2017-08-28T13:34:43.049Z,29.8
2017-08-28T13:35:44.552Z,29.7
2017-08-28T13:36:45.965Z,29.6
2017-08-28T13:37:47.377Z,29.5